Time;durP1;ratioP1;P1;durP2;ratioP2;P2;SDS_P1;SDS_P2;PMS_P1;PMS_P2;Temp;Humidity;BMP_temperature;BMP_pressure;BME280_temperature;BME280_humidity;BME280_pressure;Samples;Min_cycle;Max_cycle;Signal;HPM_P1;HPM_P2
2022/01/03 18:57:26;;;;;;;2.60;1.50;;;;;;;;;;4822299;29;20662;-93
2022/01/03 19:00:28;;;;;;;2.57;1.57;;;;;;;;;;4822498;29;20233;-91
2022/01/03 19:03:01;;;;;;;3.23;1.30;;;;;;;;;;4822570;29;20209;-91
2022/01/03 19:05:29;;;;;;;1.87;1.33;;;;;;;;;;4869642;29;20292;-91
2022/01/03 19:10:46;;;;;;;3.13;1.20;;;;;;;;;;4879391;29;20235;-92
2022/01/03 19:13:25;;;;;;;3.93;1.53;;;;;;;;;;4879455;29;20231;-93
2022/01/03 19:16:04;;;;;;;2.63;1.33;;;;;;;;;;4879187;29;20227;-93
2022/01/03 19:18:40;;;;;;;3.13;1.20;;;;;;;;;;4879607;29;20688;-91
2022/01/03 19:21:14;;;;;;;3.87;1.50;;;;;;;;;;4879128;29;20583;-93
2022/01/03 19:23:43;;;;;;;3.40;1.27;;;;;;;;;;4879069;29;20236;-92
2022/01/03 19:29:24;;;;;;;2.87;1.10;;;;;;;;;;4878679;29;20223;-92
2022/01/03 19:32:06;;;;;;;4.27;1.70;;;;;;;;;;4878015;29;20243;-91
2022/01/03 19:44:24;;;;;;;1.20;1.10;;;;;;;;;;4840685;29;20203;-91
2022/01/03 19:49:58;;;;;;;3.37;1.40;;;;;;;;;;4840561;29;20216;-91
2022/01/03 19:52:29;;;;;;;3.60;1.37;;;;;;;;;;4880374;29;20243;-91
2022/01/03 19:57:48;;;;;;;3.97;1.70;;;;;;;;;;4878521;29;20208;-91
2022/01/03 20:00:19;;;;;;;1.73;1.50;;;;;;;;;;4879983;29;20215;-92
2022/01/03 20:02:51;;;;;;;2.50;1.40;;;;;;;;;;4878598;29;20212;-91
2022/01/03 20:05:35;;;;;;;2.97;1.63;;;;;;;;;;4878719;29;20238;-91
2022/01/03 20:08:31;;;;;;;2.03;1.30;;;;;;;;;;4876819;29;20215;-91
2022/01/03 20:11:01;;;;;;;3.33;1.30;;;;;;;;;;4879106;29;20268;-94
2022/01/03 20:13:30;;;;;;;3.87;1.50;;;;;;;;;;4879480;29;20239;-90
2022/01/03 20:16:06;;;;;;;2.13;1.70;;;;;;;;;;4878585;29;20274;-91
2022/01/03 20:18:34;;;;;;;4.40;1.20;;;;;;;;;;4879254;29;20733;-91
2022/01/03 20:21:14;;;;;;;4.87;1.30;;;;;;;;;;4878295;29;20244;-91
2022/01/03 20:23:45;;;;;;;3.77;1.70;;;;;;;;;;4877572;29;20231;-91
2022/01/03 20:26:18;;;;;;;3.37;1.50;;;;;;;;;;4877997;29;20216;-92
2022/01/03 20:28:47;;;;;;;1.63;1.20;;;;;;;;;;4878836;29;20215;-91
2022/01/03 20:36:51;;;;;;;1.40;1.30;;;;;;;;;;4878876;29;20288;-92
2022/01/03 20:48:20;;;;;;;3.43;1.30;;;;;;;;;;4887265;29;20234;-92
2022/01/03 20:50:48;;;;;;;1.97;1.23;;;;;;;;;;4897784;29;20234;-93
2022/01/03 20:53:15;;;;;;;4.17;1.50;;;;;;;;;;4897022;29;20724;-93
2022/01/03 20:55:55;;;;;;;2.90;1.00;;;;;;;;;;4896462;29;20235;-93
2022/01/03 20:58:22;;;;;;;4.17;1.70;;;;;;;;;;4891291;29;20218;-93
2022/01/03 21:00:50;;;;;;;1.43;1.00;;;;;;;;;;4881549;29;20233;-92
2022/01/03 21:03:17;;;;;;;2.43;1.20;;;;;;;;;;4889550;29;20222;-92
2022/01/03 21:05:47;;;;;;;2.33;1.13;;;;;;;;;;4891250;29;20274;-93
2022/01/03 21:08:14;;;;;;;1.33;1.23;;;;;;;;;;4896167;29;20218;-93
2022/01/03 21:10:42;;;;;;;1.63;1.20;;;;;;;;;;4890065;29;20211;-93
2022/01/03 21:13:10;;;;;;;2.87;1.00;;;;;;;;;;4896040;29;20227;-93
2022/01/03 21:15:38;;;;;;;2.03;1.17;;;;;;;;;;4896576;29;20237;-93
2022/01/03 21:18:06;;;;;;;2.23;1.27;;;;;;;;;;4894439;29;20336;-93
2022/01/03 21:20:33;;;;;;;1.30;1.17;;;;;;;;;;4889400;29;20207;-93
2022/01/03 21:23:02;;;;;;;2.23;1.07;;;;;;;;;;4895847;29;20205;-93
2022/01/03 21:25:30;;;;;;;1.27;1.00;;;;;;;;;;4896287;29;20231;-92
2022/01/03 21:27:57;;;;;;;2.00;0.90;;;;;;;;;;4892997;29;20214;-92
2022/01/03 21:30:24;;;;;;;2.00;0.90;;;;;;;;;;4893310;29;20259;-93
2022/01/03 21:32:52;;;;;;;2.47;1.17;;;;;;;;;;4897965;29;20207;-93
2022/01/03 21:35:21;;;;;;;3.37;1.17;;;;;;;;;;4898991;29;20239;-92
2022/01/03 21:37:48;;;;;;;1.97;1.30;;;;;;;;;;4892359;29;20648;-92
2022/01/03 21:40:18;;;;;;;3.50;1.03;;;;;;;;;;4897334;29;20314;-92
2022/01/03 21:42:50;;;;;;;1.53;1.10;;;;;;;;;;4897215;29;20594;-92
2022/01/03 21:45:23;;;;;;;2.43;1.23;;;;;;;;;;4899240;29;20227;-92
2022/01/03 21:47:55;;;;;;;2.57;1.33;;;;;;;;;;4900122;29;20558;-93
2022/01/03 21:50:23;;;;;;;3.27;1.27;;;;;;;;;;4901374;29;20302;-93
2022/01/03 21:52:50;;;;;;;2.93;1.23;;;;;;;;;;4898283;29;20219;-92
2022/01/03 21:55:19;;;;;;;1.17;1.07;;;;;;;;;;4897381;29;20235;-92
2022/01/03 21:57:47;;;;;;;1.10;1.00;;;;;;;;;;4892203;29;20722;-93
2022/01/03 22:00:18;;;;;;;2.00;1.20;;;;;;;;;;4897210;29;20211;-93
2022/01/03 22:02:45;;;;;;;1.87;1.03;;;;;;;;;;4898590;29;20215;-91
2022/01/03 22:05:13;;;;;;;1.70;1.10;;;;;;;;;;4888740;29;20240;-93
2022/01/03 22:07:42;;;;;;;1.10;1.00;;;;;;;;;;4898477;29;20211;-93
2022/01/03 22:10:10;;;;;;;1.13;1.00;;;;;;;;;;4898811;29;20663;-93
2022/01/03 22:12:39;;;;;;;1.33;0.83;;;;;;;;;;4897074;29;22460;-92
2022/01/03 22:15:07;;;;;;;1.93;0.80;;;;;;;;;;4893673;29;20235;-92
2022/01/03 22:17:35;;;;;;;2.40;1.20;;;;;;;;;;4898930;29;20272;-93
2022/01/03 22:20:02;;;;;;;0.90;0.90;;;;;;;;;;4899229;29;20218;-93
2022/01/03 22:22:29;;;;;;;1.00;0.90;;;;;;;;;;4896916;29;20218;-92
2022/01/03 22:24:57;;;;;;;2.60;1.33;;;;;;;;;;4892202;29;20242;-92
2022/01/03 22:27:24;;;;;;;5.37;1.47;;;;;;;;;;4902529;29;20240;-93
2022/01/03 22:29:53;;;;;;;3.70;1.60;;;;;;;;;;4902903;29;20215;-93
2022/01/03 22:32:20;;;;;;;3.03;1.70;;;;;;;;;;4897926;29;20543;-93
2022/01/03 22:34:48;;;;;;;1.53;1.30;;;;;;;;;;4890010;29;20236;-93
2022/01/03 22:37:16;;;;;;;1.50;1.40;;;;;;;;;;4895601;29;20219;-93
2022/01/03 22:39:43;;;;;;;2.10;1.20;;;;;;;;;;4902833;29;20267;-92
2022/01/03 22:42:11;;;;;;;2.17;1.50;;;;;;;;;;4894532;29;20218;-93
2022/01/03 22:44:38;;;;;;;4.47;1.97;;;;;;;;;;4902728;29;20223;-93
2022/01/03 22:47:07;;;;;;;2.67;1.57;;;;;;;;;;4902971;29;20215;-93
2022/01/03 22:49:34;;;;;;;4.30;2.20;;;;;;;;;;4900626;29;20215;-92
2022/01/03 22:52:02;;;;;;;3.67;2.57;;;;;;;;;;4892298;29;20215;-92
2022/01/03 22:54:29;;;;;;;5.53;2.53;;;;;;;;;;4902674;29;20235;-93
2022/01/03 22:56:57;;;;;;;3.57;2.03;;;;;;;;;;4903622;29;20207;-92
2022/01/03 22:59:24;;;;;;;2.97;2.10;;;;;;;;;;4899976;29;20219;-93
2022/01/03 23:01:51;;;;;;;4.17;1.93;;;;;;;;;;4896977;29;20266;-93
2022/01/03 23:04:20;;;;;;;3.57;1.87;;;;;;;;;;4903889;29;20287;-93
2022/01/03 23:06:48;;;;;;;1.60;1.40;;;;;;;;;;4904167;29;20271;-93
2022/01/03 23:09:16;;;;;;;2.80;1.30;;;;;;;;;;4899884;29;20215;-93
2022/01/03 23:11:43;;;;;;;3.87;2.07;;;;;;;;;;4904226;29;20211;-93
2022/01/03 23:14:11;;;;;;;3.37;1.60;;;;;;;;;;4908302;29;20236;-93
2022/01/03 23:16:40;;;;;;;2.90;1.67;;;;;;;;;;4903099;29;20263;-93
2022/01/03 23:19:08;;;;;;;1.90;1.33;;;;;;;;;;4894730;29;20207;-92
2022/01/03 23:21:37;;;;;;;3.23;1.57;;;;;;;;;;4903141;29;20204;-92
2022/01/03 23:24:04;;;;;;;1.97;1.10;;;;;;;;;;4903461;29;20223;-93
2022/01/03 23:26:31;;;;;;;2.50;1.10;;;;;;;;;;4894468;29;20227;-93
2022/01/03 23:29:02;;;;;;;2.80;0.90;;;;;;;;;;4903764;29;20211;-93
2022/01/03 23:31:29;;;;;;;0.70;0.60;;;;;;;;;;4903252;29;20204;-93
2022/01/03 23:33:56;;;;;;;1.00;0.80;;;;;;;;;;4898281;29;20255;-93
2022/01/03 23:36:24;;;;;;;4.60;0.83;;;;;;;;;;4892626;29;20211;-92
2022/01/03 23:38:53;;;;;;;0.90;0.80;;;;;;;;;;4905545;29;20211;-93
2022/01/03 23:41:20;;;;;;;0.83;0.53;;;;;;;;;;4900694;29;20259;-92
2022/01/03 23:43:47;;;;;;;1.17;0.70;;;;;;;;;;4896705;29;20234;-92
2022/01/03 23:46:15;;;;;;;1.17;0.80;;;;;;;;;;4902810;29;20210;-93
2022/01/03 23:48:42;;;;;;;0.67;0.53;;;;;;;;;;4903189;29;20267;-93
2022/01/03 23:51:10;;;;;;;0.67;0.67;;;;;;;;;;4897887;29;20216;-93
2022/01/03 23:53:37;;;;;;;1.60;0.40;;;;;;;;;;4890844;29;20330;-93
2022/01/03 23:56:06;;;;;;;0.97;0.63;;;;;;;;;;4898782;29;20212;-93
2022/01/03 23:58:34;;;;;;;1.20;0.87;;;;;;;;;;4894786;29;20215;-92
